»·PEaware :: SWA1820 KSAN-KSFO

SWA1820 :: KSAN-KSFO

FLIGHT INFORMATION

Flight Status: Arrived
Operator:
Southwest Airlines
More flights by this operator :: More flights under this callsign
Pilot: Jake M. (20491)
Aircraft: AIRBUS A320
(A320)
More flights by this aircraft type
Origin: KSAN San Diego Intl-Lindbergh
United States
Destination: KSFO San Francisco Intl
United States
More flights between these airports :: More routes between these airports
Route: PADRZ2 IKAYE RIZIN SPLNT STOKD SERFR SERFR3
File this flight plan on PilotEdge
Remarks: PBN / A1B1C1D1O1S1 DOF / 181011 REG / N320SB EET / KZOA0039 OPR / SWA PER / C RMK / TCAS SIMBRIEF
Altitude:
(Current/Filed)
38,000ft
Speed:
(Current/Filed)
441kts
Departed: 10-Oct-18 08:33 PM
Arrived: 10-Oct-18 09:36 PM
Distance/Time
Traveled:
388nm/1:03
Distance/Time
To Go:
Arrived

Flight Plot

Page will automatically refresh every two minutes.

Flight plan parsing failed; only flown route is shown


Map Options




Map Legend


Flown Route
Filed Route
Departure Airport
Arrival Airport
Navaid (VOR, NDB)
Fix

Horizontal Profiles

Position Reports

Time Latitude Longitude Heading Altitude Ground
Speed
10-Oct-18 20:16 32.733197 -117.196861 134 19ft 0kts
10-Oct-18 20:17 32.733197 -117.196861 134 19ft 0kts
10-Oct-18 20:18 32.733197 -117.196861 134 19ft 0kts
10-Oct-18 20:19 32.733197 -117.196861 134 19ft 0kts
10-Oct-18 20:20 32.733197 -117.196861 134 19ft 0kts
10-Oct-18 20:21 32.733197 -117.196861 134 19ft 0kts
10-Oct-18 20:22 32.733197 -117.196861 134 19ft 0kts
10-Oct-18 20:23 32.733197 -117.196861 134 19ft 0kts
10-Oct-18 20:24 32.733197 -117.196861 134 19ft 0kts
10-Oct-18 20:25 32.733197 -117.196861 134 19ft 0kts
10-Oct-18 20:26 32.733197 -117.196861 134 19ft 0kts
10-Oct-18 20:27 32.733236 -117.196906 134 19ft 0kts
10-Oct-18 20:28 32.733132 -117.197280 16 20ft 0kts
10-Oct-18 20:29 32.733117 -117.197285 17 20ft 0kts
10-Oct-18 20:30 32.734094 -117.196625 74 19ft 12kts
10-Oct-18 20:31 32.732534 -117.189670 106 21ft 28kts
10-Oct-18 20:32 32.730173 -117.180000 105 19ft 31kts
10-Oct-18 20:33 32.729549 -117.176559 75 25ft 0kts
10-Oct-18 20:34 32.730376 -117.176659 289 26ft 11kts
10-Oct-18 20:35 32.740521 -117.214382 300 1668ft 193kts
10-Oct-18 20:36 32.775474 -117.275862 304 4797ft 265kts
10-Oct-18 20:37 32.819106 -117.348899 308 8753ft 282kts
10-Oct-18 20:38 32.869268 -117.426381 307 11798ft 323kts
10-Oct-18 20:39 32.924719 -117.512526 307 14755ft 333kts
10-Oct-18 20:40 32.981249 -117.600688 307 15009ft 336kts
10-Oct-18 20:41 33.037611 -117.688772 307 15134ft 337kts
10-Oct-18 20:42 33.102299 -117.768563 318 16318ft 345kts
10-Oct-18 20:43 33.175967 -117.843608 318 19050ft 358kts
10-Oct-18 20:44 33.260967 -117.941823 314 21850ft 373kts
10-Oct-18 20:45 33.322122 -118.014843 314 23629ft 382kts
10-Oct-18 20:46 33.398391 -118.106122 314 25545ft 394kts
10-Oct-18 20:47 33.476879 -118.200304 314 27191ft 407kts
10-Oct-18 20:48 33.556693 -118.296349 314 28711ft 418kts
10-Oct-18 20:49 33.639715 -118.396534 314 30071ft 429kts
10-Oct-18 20:50 33.724029 -118.498584 314 31388ft 436kts
10-Oct-18 20:51 33.809694 -118.602577 314 32703ft 439kts
10-Oct-18 20:52 33.893409 -118.704529 313 34211ft 433kts
10-Oct-18 20:53 33.977036 -118.806627 313 35581ft 428kts
10-Oct-18 20:54 34.059048 -118.907067 313 36785ft 424kts
10-Oct-18 20:55 34.139655 -119.007675 308 37744ft 422kts
10-Oct-18 20:56 34.203099 -119.126531 301 37925ft 421kts
10-Oct-18 20:57 34.264882 -119.246648 301 37926ft 422kts
10-Oct-18 20:58 34.326422 -119.366662 301 37927ft 422kts
10-Oct-18 20:59 34.388244 -119.487645 301 37926ft 422kts
10-Oct-18 21:00 34.463070 -119.596277 313 37902ft 425kts
10-Oct-18 21:01 34.545682 -119.697992 312 37898ft 425kts
10-Oct-18 21:02 34.628203 -119.799886 312 37900ft 426kts
10-Oct-18 21:03 34.710840 -119.902224 312 37926ft 426kts
10-Oct-18 21:04 34.793678 -120.005121 312 37926ft 427kts
10-Oct-18 21:05 34.876418 -120.108210 312 37927ft 427kts
10-Oct-18 21:06 34.959350 -120.211854 312 37927ft 428kts
10-Oct-18 21:07 35.041988 -120.315450 312 37927ft 428kts
10-Oct-18 21:08 35.126492 -120.416220 315 37925ft 430kts
10-Oct-18 21:09 35.214072 -120.514393 314 37877ft 435kts
10-Oct-18 21:10 35.303953 -120.615434 314 37907ft 442kts
10-Oct-18 21:11 35.393974 -120.716961 314 37975ft 446kts
10-Oct-18 21:12 35.485452 -120.819336 317 37978ft 448kts
10-Oct-18 21:13 35.584514 -120.911871 319 37964ft 448kts
10-Oct-18 21:14 35.683793 -121.004230 319 37932ft 447kts
10-Oct-18 21:15 35.782368 -121.096206 319 37877ft 446kts
10-Oct-18 21:16 35.881018 -121.188548 320 36938ft 445kts
10-Oct-18 21:17 35.979176 -121.280712 320 35993ft 446kts
10-Oct-18 21:18 36.077794 -121.371854 325 33606ft 449kts
10-Oct-18 21:19 36.182072 -121.453314 327 30723ft 454kts
10-Oct-18 21:20 36.287232 -121.535629 326 28410ft 442kts
10-Oct-18 21:21 36.389446 -121.615855 326 26127ft 429kts
10-Oct-18 21:22 36.488038 -121.693457 325 24122ft 409kts
10-Oct-18 21:23 36.582110 -121.767798 325 22013ft 396kts
10-Oct-18 21:24 36.673247 -121.840008 325 19840ft 386kts
10-Oct-18 21:25 36.765874 -121.901129 346 17655ft 378kts
10-Oct-18 21:26 36.866492 -121.930621 345 15534ft 367kts
10-Oct-18 21:27 36.963790 -121.958273 342 13612ft 351kts
10-Oct-18 21:28 37.055054 -121.993443 342 11608ft 341kts
10-Oct-18 21:29 37.142119 -122.027362 341 10144ft 316kts
10-Oct-18 21:30 37.222198 -122.058732 341 8978ft 292kts
10-Oct-18 21:31 37.297361 -122.088226 341 7863ft 271kts
10-Oct-18 21:32 37.368066 -122.116093 342 6540ft 264kts
10-Oct-18 21:33 37.437602 -122.140452 344 5983ft 260kts
10-Oct-18 21:34 37.508966 -122.164827 344 4167ft 285kts
10-Oct-18 21:35 37.561388 -122.238761 299 2623ft 224kts
10-Oct-18 21:36 37.584877 -122.295549 299 1016ft 199kts
10-Oct-18 21:37 37.605634 -122.344208 298 264ft 136kts
10-Oct-18 21:38 37.619074 -122.375973 297 24ft 38kts
10-Oct-18 21:39 37.619577 -122.381846 297 32ft 15kts
10-Oct-18 21:40 37.620039 -122.385384 205 32ft 8kts
10-Oct-18 21:41 37.618635 -122.385794 191 32ft 0kts

Navigation Log

Ident Type
Flight plan parsing failed, navigation log unavailable